sensor_id;sensor_type;location;lat;lon;timestamp;temperature;humidity
80380;DHT22;69690;48.158;17.134;2023-06-26T00:00:32;22.20;51.60
80380;DHT22;69690;48.158;17.134;2023-06-26T00:05:34;22.10;51.30
80380;DHT22;69690;48.158;17.134;2023-06-26T00:10:35;21.90;51.60
80380;DHT22;69690;48.158;17.134;2023-06-26T00:15:38;21.80;52.20
80380;DHT22;69690;48.158;17.134;2023-06-26T00:20:39;21.80;52.20
80380;DHT22;69690;48.158;17.134;2023-06-26T00:25:40;21.90;52.40
80380;DHT22;69690;48.158;17.134;2023-06-26T00:30:41;21.90;52.60
80380;DHT22;69690;48.158;17.134;2023-06-26T00:35:43;21.80;53.00
80380;DHT22;69690;48.158;17.134;2023-06-26T00:40:46;21.70;53.00
80380;DHT22;69690;48.158;17.134;2023-06-26T00:45:47;21.70;53.10
80380;DHT22;69690;48.158;17.134;2023-06-26T00:50:48;21.70;53.50
80380;DHT22;69690;48.158;17.134;2023-06-26T00:55:50;21.70;53.40
80380;DHT22;69690;48.158;17.134;2023-06-26T01:00:52;21.50;54.20
80380;DHT22;69690;48.158;17.134;2023-06-26T01:05:55;21.50;54.60
80380;DHT22;69690;48.158;17.134;2023-06-26T01:10:59;21.50;54.60
80380;DHT22;69690;48.158;17.134;2023-06-26T01:16:02;21.40;54.20
80380;DHT22;69690;48.158;17.134;2023-06-26T01:21:04;21.40;54.00
80380;DHT22;69690;48.158;17.134;2023-06-26T01:26:21;21.30;54.20
80380;DHT22;69690;48.158;17.134;2023-06-26T01:31:23;21.30;54.60
80380;DHT22;69690;48.158;17.134;2023-06-26T01:36:25;21.30;55.00
80380;DHT22;69690;48.158;17.134;2023-06-26T01:41:26;21.20;55.70
80380;DHT22;69690;48.158;17.134;2023-06-26T01:52:02;20.80;56.00
80380;DHT22;69690;48.158;17.134;2023-06-26T01:57:09;20.80;56.10
80380;DHT22;69690;48.158;17.134;2023-06-26T02:02:11;20.80;55.90
80380;DHT22;69690;48.158;17.134;2023-06-26T02:07:12;20.80;56.20
80380;DHT22;69690;48.158;17.134;2023-06-26T02:12:13;20.70;56.20
80380;DHT22;69690;48.158;17.134;2023-06-26T02:17:15;20.90;56.10
80380;DHT22;69690;48.158;17.134;2023-06-26T02:22:16;20.90;55.80
80380;DHT22;69690;48.158;17.134;2023-06-26T02:27:18;21.00;55.60
80380;DHT22;69690;48.158;17.134;2023-06-26T02:32:19;20.80;55.10
80380;DHT22;69690;48.158;17.134;2023-06-26T02:37:24;20.80;54.50
80380;DHT22;69690;48.158;17.134;2023-06-26T02:42:27;20.80;54.50
80380;DHT22;69690;48.158;17.134;2023-06-26T02:47:28;20.60;55.50
80380;DHT22;69690;48.158;17.134;2023-06-26T02:52:30;20.50;55.20
80380;DHT22;69690;48.158;17.134;2023-06-26T02:57:31;20.40;55.50
80380;DHT22;69690;48.158;17.134;2023-06-26T03:02:33;20.10;56.10
80380;DHT22;69690;48.158;17.134;2023-06-26T03:07:34;19.90;56.70
80380;DHT22;69690;48.158;17.134;2023-06-26T03:12:36;19.80;57.30
80380;DHT22;69690;48.158;17.134;2023-06-26T03:17:37;19.80;57.70
80380;DHT22;69690;48.158;17.134;2023-06-26T03:22:38;19.90;57.60
80380;DHT22;69690;48.158;17.134;2023-06-26T03:27:40;19.80;57.80
80380;DHT22;69690;48.158;17.134;2023-06-26T03:32:41;20.00;57.90
80380;DHT22;69690;48.158;17.134;2023-06-26T03:37:42;20.00;57.80
80380;DHT22;69690;48.158;17.134;2023-06-26T03:42:44;19.80;58.10
80380;DHT22;69690;48.158;17.134;2023-06-26T03:47:45;19.80;58.40
80380;DHT22;69690;48.158;17.134;2023-06-26T03:52:50;19.80;58.60
80380;DHT22;69690;48.158;17.134;2023-06-26T03:57:52;19.80;58.90
80380;DHT22;69690;48.158;17.134;2023-06-26T04:02:53;19.80;59.10
80380;DHT22;69690;48.158;17.134;2023-06-26T04:07:55;19.80;59.20
80380;DHT22;69690;48.158;17.134;2023-06-26T04:12:56;19.80;59.30
80380;DHT22;69690;48.158;17.134;2023-06-26T04:17:57;19.80;59.70
80380;DHT22;69690;48.158;17.134;2023-06-26T04:22:58;19.70;60.20
80380;DHT22;69690;48.158;17.134;2023-06-26T04:28:00;19.80;60.70
80380;DHT22;69690;48.158;17.134;2023-06-26T04:33:01;20.00;60.40
80380;DHT22;69690;48.158;17.134;2023-06-26T04:38:02;19.80;60.10
80380;DHT22;69690;48.158;17.134;2023-06-26T04:43:04;19.90;60.40
80380;DHT22;69690;48.158;17.134;2023-06-26T04:48:05;20.10;60.30
80380;DHT22;69690;48.158;17.134;2023-06-26T04:53:06;20.20;60.00
80380;DHT22;69690;48.158;17.134;2023-06-26T04:58:07;20.50;59.60
80380;DHT22;69690;48.158;17.134;2023-06-26T05:03:13;20.70;59.40
80380;DHT22;69690;48.158;17.134;2023-06-26T05:08:21;20.80;59.20
80380;DHT22;69690;48.158;17.134;2023-06-26T05:13:24;20.90;59.00
80380;DHT22;69690;48.158;17.134;2023-06-26T05:18:25;21.10;59.00
80380;DHT22;69690;48.158;17.134;2023-06-26T05:23:31;21.40;57.60
80380;DHT22;69690;48.158;17.134;2023-06-26T05:28:34;21.70;56.40
80380;DHT22;69690;48.158;17.134;2023-06-26T05:33:37;21.80;56.10
80380;DHT22;69690;48.158;17.134;2023-06-26T05:38:39;22.00;56.10
80380;DHT22;69690;48.158;17.134;2023-06-26T05:43:40;22.10;54.40
80380;DHT22;69690;48.158;17.134;2023-06-26T05:48:42;22.40;53.50
80380;DHT22;69690;48.158;17.134;2023-06-26T05:53:43;22.50;52.10
80380;DHT22;69690;48.158;17.134;2023-06-26T05:58:45;22.80;51.60
80380;DHT22;69690;48.158;17.134;2023-06-26T06:03:47;22.90;51.20
80380;DHT22;69690;48.158;17.134;2023-06-26T06:08:48;23.10;50.40
80380;DHT22;69690;48.158;17.134;2023-06-26T06:13:49;23.30;49.40
80380;DHT22;69690;48.158;17.134;2023-06-26T06:18:51;23.50;48.30
80380;DHT22;69690;48.158;17.134;2023-06-26T06:23:52;23.80;48.40
80380;DHT22;69690;48.158;17.134;2023-06-26T06:28:53;24.00;47.30
80380;DHT22;69690;48.158;17.134;2023-06-26T06:33:55;24.10;47.30
80380;DHT22;69690;48.158;17.134;2023-06-26T06:38:56;24.10;46.00
80380;DHT22;69690;48.158;17.134;2023-06-26T06:43:57;24.30;46.40
80380;DHT22;69690;48.158;17.134;2023-06-26T06:48:58;24.40;45.40
80380;DHT22;69690;48.158;17.134;2023-06-26T06:54:01;24.50;44.30
80380;DHT22;69690;48.158;17.134;2023-06-26T06:59:03;24.50;44.20
80380;DHT22;69690;48.158;17.134;2023-06-26T07:04:04;24.60;44.60
80380;DHT22;69690;48.158;17.134;2023-06-26T07:09:05;24.70;44.20
80380;DHT22;69690;48.158;17.134;2023-06-26T07:14:07;24.70;44.30
80380;DHT22;69690;48.158;17.134;2023-06-26T07:19:08;24.80;43.80
80380;DHT22;69690;48.158;17.134;2023-06-26T07:24:10;25.00;43.00
80380;DHT22;69690;48.158;17.134;2023-06-26T07:29:12;25.00;42.80
80380;DHT22;69690;48.158;17.134;2023-06-26T07:34:14;25.00;43.50
80380;DHT22;69690;48.158;17.134;2023-06-26T07:39:15;25.10;43.70
80380;DHT22;69690;48.158;17.134;2023-06-26T07:44:16;25.20;44.30
80380;DHT22;69690;48.158;17.134;2023-06-26T07:49:18;25.20;44.30
80380;DHT22;69690;48.158;17.134;2023-06-26T07:54:19;25.30;43.20
80380;DHT22;69690;48.158;17.134;2023-06-26T07:59:20;25.40;42.80
80380;DHT22;69690;48.158;17.134;2023-06-26T08:04:24;25.50;43.50
80380;DHT22;69690;48.158;17.134;2023-06-26T08:09:28;25.40;43.60
80380;DHT22;69690;48.158;17.134;2023-06-26T08:14:30;25.40;44.10
80380;DHT22;69690;48.158;17.134;2023-06-26T08:19:32;25.40;44.70
80380;DHT22;69690;48.158;17.134;2023-06-26T08:24:33;25.30;43.90
80380;DHT22;69690;48.158;17.134;2023-06-26T08:29:34;25.30;44.50
80380;DHT22;69690;48.158;17.134;2023-06-26T08:34:35;25.50;44.70
80380;DHT22;69690;48.158;17.134;2023-06-26T08:39:37;25.50;44.50
80380;DHT22;69690;48.158;17.134;2023-06-26T08:44:38;25.60;45.40
80380;DHT22;69690;48.158;17.134;2023-06-26T08:49:47;25.70;45.10
80380;DHT22;69690;48.158;17.134;2023-06-26T08:55:02;25.90;46.10
80380;DHT22;69690;48.158;17.134;2023-06-26T09:00:04;25.80;46.70
80380;DHT22;69690;48.158;17.134;2023-06-26T09:05:06;25.90;46.40
80380;DHT22;69690;48.158;17.134;2023-06-26T09:10:08;26.10;45.80
80380;DHT22;69690;48.158;17.134;2023-06-26T09:15:10;26.20;44.40
80380;DHT22;69690;48.158;17.134;2023-06-26T09:20:15;26.40;43.90
80380;DHT22;69690;48.158;17.134;2023-06-26T09:25:17;26.40;42.50
80380;DHT22;69690;48.158;17.134;2023-06-26T09:30:20;26.50;42.40
80380;DHT22;69690;48.158;17.134;2023-06-26T09:35:21;26.60;42.90
80380;DHT22;69690;48.158;17.134;2023-06-26T09:40:23;26.60;41.40
80380;DHT22;69690;48.158;17.134;2023-06-26T09:45:24;26.70;42.30
80380;DHT22;69690;48.158;17.134;2023-06-26T09:50:25;26.90;41.40
80380;DHT22;69690;48.158;17.134;2023-06-26T09:55:28;27.10;41.40
80380;DHT22;69690;48.158;17.134;2023-06-26T10:00:32;27.40;40.60
80380;DHT22;69690;48.158;17.134;2023-06-26T10:05:34;27.70;39.90
80380;DHT22;69690;48.158;17.134;2023-06-26T10:10:37;27.70;39.80
80380;DHT22;69690;48.158;17.134;2023-06-26T10:15:39;29.50;37.60
80380;DHT22;69690;48.158;17.134;2023-06-26T10:20:42;32.90;33.60
80380;DHT22;69690;48.158;17.134;2023-06-26T10:25:48;35.10;30.40
80380;DHT22;69690;48.158;17.134;2023-06-26T10:30:52;35.90;29.10
80380;DHT22;69690;48.158;17.134;2023-06-26T10:36:15;35.20;29.90
80380;DHT22;69690;48.158;17.134;2023-06-26T10:41:22;35.30;29.40
80380;DHT22;69690;48.158;17.134;2023-06-26T10:46:24;35.30;28.40
80380;DHT22;69690;48.158;17.134;2023-06-26T10:51:26;36.00;28.60
80380;DHT22;69690;48.158;17.134;2023-06-26T10:56:45;36.50;28.20
80380;DHT22;69690;48.158;17.134;2023-06-26T11:01:58;36.90;27.80
80380;DHT22;69690;48.158;17.134;2023-06-26T11:07:23;36.30;28.00
80380;DHT22;69690;48.158;17.134;2023-06-26T11:17:41;40.00;25.70
80380;DHT22;69690;48.158;17.134;2023-06-26T11:22:43;40.00;25.80
80380;DHT22;69690;48.158;17.134;2023-06-26T11:27:45;39.60;25.20
80380;DHT22;69690;48.158;17.134;2023-06-26T11:32:47;38.80;26.10
80380;DHT22;69690;48.158;17.134;2023-06-26T11:37:48;37.60;26.30
80380;DHT22;69690;48.158;17.134;2023-06-26T11:42:53;38.90;25.80
80380;DHT22;69690;48.158;17.134;2023-06-26T11:47:55;39.90;25.00
80380;DHT22;69690;48.158;17.134;2023-06-26T11:52:58;40.10;24.80
80380;DHT22;69690;48.158;17.134;2023-06-26T11:58:00;38.70;25.60
80380;DHT22;69690;48.158;17.134;2023-06-26T12:03:01;38.40;25.90
80380;DHT22;69690;48.158;17.134;2023-06-26T12:08:04;38.10;26.40
80380;DHT22;69690;48.158;17.134;2023-06-26T12:13:07;38.70;25.90
80380;DHT22;69690;48.158;17.134;2023-06-26T12:18:09;39.90;25.20
80380;DHT22;69690;48.158;17.134;2023-06-26T12:23:14;40.40;25.10
80380;DHT22;69690;48.158;17.134;2023-06-26T12:28:18;40.50;25.20
80380;DHT22;69690;48.158;17.134;2023-06-26T12:33:19;40.50;25.60
80380;DHT22;69690;48.158;17.134;2023-06-26T12:38:21;39.70;25.60
80380;DHT22;69690;48.158;17.134;2023-06-26T12:43:23;37.60;26.20
80380;DHT22;69690;48.158;17.134;2023-06-26T12:53:44;34.80;28.50
80380;DHT22;69690;48.158;17.134;2023-06-26T12:58:45;35.50;28.70
80380;DHT22;69690;48.158;17.134;2023-06-26T13:03:46;36.70;28.00
80380;DHT22;69690;48.158;17.134;2023-06-26T13:08:48;37.00;27.20
80380;DHT22;69690;48.158;17.134;2023-06-26T13:13:49;36.50;27.20
80380;DHT22;69690;48.158;17.134;2023-06-26T13:18:50;35.80;27.60
80380;DHT22;69690;48.158;17.134;2023-06-26T13:23:52;35.50;28.50
80380;DHT22;69690;48.158;17.134;2023-06-26T13:28:53;34.50;29.40
80380;DHT22;69690;48.158;17.134;2023-06-26T13:33:58;33.50;29.80
80380;DHT22;69690;48.158;17.134;2023-06-26T13:39:01;33.30;31.10
80380;DHT22;69690;48.158;17.134;2023-06-26T13:44:03;33.10;30.60
80380;DHT22;69690;48.158;17.134;2023-06-26T13:49:04;32.90;30.00
80380;DHT22;69690;48.158;17.134;2023-06-26T13:54:06;32.90;31.20
80380;DHT22;69690;48.158;17.134;2023-06-26T13:59:09;32.70;31.00
80380;DHT22;69690;48.158;17.134;2023-06-26T14:04:10;32.70;32.00
80380;DHT22;69690;48.158;17.134;2023-06-26T14:09:11;32.70;31.60
80380;DHT22;69690;48.158;17.134;2023-06-26T14:14:13;32.60;31.00
80380;DHT22;69690;48.158;17.134;2023-06-26T14:19:14;32.60;31.20
80380;DHT22;69690;48.158;17.134;2023-06-26T14:24:18;32.40;31.70
80380;DHT22;69690;48.158;17.134;2023-06-26T14:29:19;32.30;31.40
80380;DHT22;69690;48.158;17.134;2023-06-26T14:34:22;32.20;31.00
80380;DHT22;69690;48.158;17.134;2023-06-26T14:39:23;32.10;32.60
80380;DHT22;69690;48.158;17.134;2023-06-26T14:44:25;31.90;31.70
80380;DHT22;69690;48.158;17.134;2023-06-26T14:49:26;31.90;32.40
80380;DHT22;69690;48.158;17.134;2023-06-26T14:54:27;31.90;32.40
80380;DHT22;69690;48.158;17.134;2023-06-26T14:59:28;31.60;31.70
80380;DHT22;69690;48.158;17.134;2023-06-26T15:04:31;31.60;32.40
80380;DHT22;69690;48.158;17.134;2023-06-26T15:09:32;31.50;33.20
80380;DHT22;69690;48.158;17.134;2023-06-26T15:14:37;31.50;33.20
80380;DHT22;69690;48.158;17.134;2023-06-26T15:19:38;31.50;32.40
80380;DHT22;69690;48.158;17.134;2023-06-26T15:24:40;31.10;33.30
80380;DHT22;69690;48.158;17.134;2023-06-26T15:29:41;31.10;33.70
80380;DHT22;69690;48.158;17.134;2023-06-26T15:34:42;31.20;33.50
80380;DHT22;69690;48.158;17.134;2023-06-26T15:39:43;31.30;33.30
80380;DHT22;69690;48.158;17.134;2023-06-26T15:44:45;31.40;33.00
80380;DHT22;69690;48.158;17.134;2023-06-26T15:49:46;31.40;33.70
80380;DHT22;69690;48.158;17.134;2023-06-26T15:54:48;31.40;33.10
80380;DHT22;69690;48.158;17.134;2023-06-26T15:59:49;31.20;33.90
80380;DHT22;69690;48.158;17.134;2023-06-26T16:04:50;31.10;33.20
80380;DHT22;69690;48.158;17.134;2023-06-26T16:09:52;31.00;33.90
80380;DHT22;69690;48.158;17.134;2023-06-26T16:14:53;30.90;34.80
80380;DHT22;69690;48.158;17.134;2023-06-26T16:19:54;30.90;34.40
80380;DHT22;69690;48.158;17.134;2023-06-26T16:24:55;30.70;34.90
80380;DHT22;69690;48.158;17.134;2023-06-26T16:29:57;30.70;35.20
80380;DHT22;69690;48.158;17.134;2023-06-26T16:34:59;30.70;34.60
80380;DHT22;69690;48.158;17.134;2023-06-26T16:40:00;30.60;35.50
80380;DHT22;69690;48.158;17.134;2023-06-26T16:45:02;30.40;35.50
80380;DHT22;69690;48.158;17.134;2023-06-26T16:50:04;30.30;35.60
80380;DHT22;69690;48.158;17.134;2023-06-26T16:55:06;30.00;35.80
80380;DHT22;69690;48.158;17.134;2023-06-26T17:00:08;29.80;36.40
80380;DHT22;69690;48.158;17.134;2023-06-26T17:05:13;29.70;36.30
80380;DHT22;69690;48.158;17.134;2023-06-26T17:10:14;29.60;37.00
80380;DHT22;69690;48.158;17.134;2023-06-26T17:15:15;29.60;37.30
80380;DHT22;69690;48.158;17.134;2023-06-26T17:20:18;29.60;37.20
80380;DHT22;69690;48.158;17.134;2023-06-26T17:25:20;29.50;37.20
80380;DHT22;69690;48.158;17.134;2023-06-26T17:30:21;29.50;37.50
80380;DHT22;69690;48.158;17.134;2023-06-26T17:35:23;29.30;38.10
80380;DHT22;69690;48.158;17.134;2023-06-26T17:40:25;29.30;38.00
80380;DHT22;69690;48.158;17.134;2023-06-26T17:45:26;29.20;37.40
80380;DHT22;69690;48.158;17.134;2023-06-26T17:50:28;29.20;38.00
80380;DHT22;69690;48.158;17.134;2023-06-26T17:55:30;29.10;38.50
80380;DHT22;69690;48.158;17.134;2023-06-26T18:00:32;29.00;39.00
80380;DHT22;69690;48.158;17.134;2023-06-26T18:05:33;29.00;38.30
80380;DHT22;69690;48.158;17.134;2023-06-26T18:10:34;29.00;38.80
80380;DHT22;69690;48.158;17.134;2023-06-26T18:15:35;28.80;39.50
80380;DHT22;69690;48.158;17.134;2023-06-26T18:20:37;28.60;37.10
80380;DHT22;69690;48.158;17.134;2023-06-26T18:25:38;28.50;37.10
80380;DHT22;69690;48.158;17.134;2023-06-26T18:30:39;28.40;37.30
80380;DHT22;69690;48.158;17.134;2023-06-26T18:35:40;28.30;37.60
80380;DHT22;69690;48.158;17.134;2023-06-26T18:40:42;28.20;37.60
80380;DHT22;69690;48.158;17.134;2023-06-26T18:45:43;28.00;38.20
80380;DHT22;69690;48.158;17.134;2023-06-26T18:50:44;27.90;38.80
80380;DHT22;69690;48.158;17.134;2023-06-26T18:55:45;27.70;38.90
80380;DHT22;69690;48.158;17.134;2023-06-26T19:00:46;27.60;39.10
80380;DHT22;69690;48.158;17.134;2023-06-26T19:05:48;27.40;40.20
80380;DHT22;69690;48.158;17.134;2023-06-26T19:10:49;27.30;42.00
80380;DHT22;69690;48.158;17.134;2023-06-26T19:15:50;27.20;43.20
80380;DHT22;69690;48.158;17.134;2023-06-26T19:20:51;27.10;43.90
80380;DHT22;69690;48.158;17.134;2023-06-26T19:25:53;26.90;44.80
80380;DHT22;69690;48.158;17.134;2023-06-26T19:30:54;26.70;45.20
80380;DHT22;69690;48.158;17.134;2023-06-26T19:35:55;26.60;45.40
80380;DHT22;69690;48.158;17.134;2023-06-26T19:40:56;26.50;45.30
80380;DHT22;69690;48.158;17.134;2023-06-26T19:45:58;26.50;45.40
80380;DHT22;69690;48.158;17.134;2023-06-26T19:51:00;26.40;45.80
80380;DHT22;69690;48.158;17.134;2023-06-26T19:56:03;26.40;43.60
80380;DHT22;69690;48.158;17.134;2023-06-26T20:01:05;26.40;42.50
80380;DHT22;69690;48.158;17.134;2023-06-26T20:06:07;26.20;41.90
80380;DHT22;69690;48.158;17.134;2023-06-26T20:11:08;26.30;41.90
80380;DHT22;69690;48.158;17.134;2023-06-26T20:16:09;26.30;41.50
80380;DHT22;69690;48.158;17.134;2023-06-26T20:21:10;26.30;42.00
80380;DHT22;69690;48.158;17.134;2023-06-26T20:26:11;26.20;41.40
80380;DHT22;69690;48.158;17.134;2023-06-26T20:31:15;26.20;42.10
80380;DHT22;69690;48.158;17.134;2023-06-26T20:36:16;26.20;42.30
80380;DHT22;69690;48.158;17.134;2023-06-26T20:41:17;26.00;42.70
80380;DHT22;69690;48.158;17.134;2023-06-26T20:46:19;26.00;43.30
80380;DHT22;69690;48.158;17.134;2023-06-26T20:51:24;25.80;43.20
80380;DHT22;69690;48.158;17.134;2023-06-26T20:56:26;25.70;43.50
80380;DHT22;69690;48.158;17.134;2023-06-26T21:01:28;25.60;43.90
80380;DHT22;69690;48.158;17.134;2023-06-26T21:06:29;25.60;44.90
80380;DHT22;69690;48.158;17.134;2023-06-26T21:11:31;25.50;44.40
80380;DHT22;69690;48.158;17.134;2023-06-26T21:16:33;25.40;44.50
80380;DHT22;69690;48.158;17.134;2023-06-26T21:21:34;25.40;44.30
80380;DHT22;69690;48.158;17.134;2023-06-26T21:26:37;25.30;44.20
80380;DHT22;69690;48.158;17.134;2023-06-26T21:31:39;25.20;44.90
80380;DHT22;69690;48.158;17.134;2023-06-26T21:36:40;25.10;44.90
80380;DHT22;69690;48.158;17.134;2023-06-26T21:41:41;25.10;45.50
80380;DHT22;69690;48.158;17.134;2023-06-26T21:46:44;25.00;45.50
80380;DHT22;69690;48.158;17.134;2023-06-26T21:51:45;25.00;45.60
80380;DHT22;69690;48.158;17.134;2023-06-26T21:56:47;25.20;45.80
80380;DHT22;69690;48.158;17.134;2023-06-26T22:01:48;25.10;46.50
80380;DHT22;69690;48.158;17.134;2023-06-26T22:06:49;25.00;47.00
80380;DHT22;69690;48.158;17.134;2023-06-26T22:11:50;24.90;47.40
80380;DHT22;69690;48.158;17.134;2023-06-26T22:16:52;24.80;47.50
80380;DHT22;69690;48.158;17.134;2023-06-26T22:21:53;24.80;48.40
80380;DHT22;69690;48.158;17.134;2023-06-26T22:26:55;24.70;49.00
80380;DHT22;69690;48.158;17.134;2023-06-26T22:31:57;24.60;49.20
80380;DHT22;69690;48.158;17.134;2023-06-26T22:36:58;24.50;49.40
80380;DHT22;69690;48.158;17.134;2023-06-26T22:41:59;24.50;49.70
80380;DHT22;69690;48.158;17.134;2023-06-26T22:47:00;24.40;50.50
80380;DHT22;69690;48.158;17.134;2023-06-26T22:52:02;24.10;50.70
80380;DHT22;69690;48.158;17.134;2023-06-26T22:57:03;24.00;51.00
80380;DHT22;69690;48.158;17.134;2023-06-26T23:02:06;23.80;51.50
80380;DHT22;69690;48.158;17.134;2023-06-26T23:07:07;23.80;51.80
80380;DHT22;69690;48.158;17.134;2023-06-26T23:12:10;23.60;52.40
80380;DHT22;69690;48.158;17.134;2023-06-26T23:17:12;23.60;52.60
80380;DHT22;69690;48.158;17.134;2023-06-26T23:22:13;23.60;53.00
80380;DHT22;69690;48.158;17.134;2023-06-26T23:27:15;23.60;53.20
80380;DHT22;69690;48.158;17.134;2023-06-26T23:32:16;23.60;54.20
80380;DHT22;69690;48.158;17.134;2023-06-26T23:37:20;23.60;54.70
80380;DHT22;69690;48.158;17.134;2023-06-26T23:42:26;23.50;55.00
80380;DHT22;69690;48.158;17.134;2023-06-26T23:47:27;23.50;55.00
80380;DHT22;69690;48.158;17.134;2023-06-26T23:52:29;23.50;55.10
80380;DHT22;69690;48.158;17.134;2023-06-26T23:57:30;23.40;55.20
